CheckWX is a tool to help pilots better visualize weather data.  It is not intended as a substitute for an official pre-flight weather briefing.

07:17:40 UTC

KSHN METAR
Sanderson Field Airport
Shelton, Washington, USA
Current

25 mins ago

KSHN 180653Z AUTO 00000KT 10SM OVC003 13/12 A2972 RMK AO2 RAE17 SLP066 P0002 T01330117
Observed
Sep-18 @ 06:53 UTC
Visibility
10 SM
Flight Rules
LIFR
Cloud Levels
  • Overcast at 300' AGL
Temperature
13°C / 55°F
Dewpoint
12°C / 54°F
Humidity
94%
Altimeter
29.72" Hg
Pressure
1006.42 hPa
Current Rain
0.02"
Previous

35 mins ago

KSHN 180643Z AUTO 00000KT 10SM BKN004 OVC100 14/12 A2972 RMK AO2 RAE17 P0002 T01390122
Observed
Sep-18 @ 06:43 UTC
Visibility
10 SM
Flight Rules
LIFR
Cloud Levels
  • Broken at 400' AGL
  • Overcast at 10,000' AGL
Temperature
14°C / 57°F
Dewpoint
12°C / 54°F
Humidity
88%
Altimeter
29.72" Hg
Pressure
1006.42 hPa
Current Rain
0.02"
Previous

1 hour ago

KSHN 180602Z AUTO 00000KT 6SM -RA BR SCT003 BKN070 OVC080 14/13 A2973 RMK AO2 P0001 T01390128
Observed
Sep-18 @ 06:02 UTC
Visibility
6 SM
Flight Rules
VFR
Conditions
Light Rain, Mist
Cloud Levels
  • Scattered at 300' AGL
  • Broken at 7,000' AGL
  • Overcast at 8,000' AGL
Temperature
14°C / 57°F
Dewpoint
13°C / 55°F
Humidity
94%
Altimeter
29.73" Hg
Pressure
1006.82 hPa
Current Rain
0.01"